KELN/ELN METAR and TAF weather

Enter ICAO airport designator
Station Type Date Time Source
KELN METAR 2022/06/26 06:53 UTC NOAA

KELN 260653Z AUTO 00000KT 10SM CLR 16/06 A3020 RMK AO2 SLP216 T01560056


Station Type Date Time Source
KELN Decoded METAR 2022/06/26 06:53 UTC NOAA

ELLENSBURG BOWERS FIELD, WA, United States (KELN) 47-02N 120-32W 519M
Jun 26, 2022 - 02:53 AM EDT / 2022.06.26 0653 UTC
Wind: Calm:0
Visibility: 10 mile(s):0
Sky conditions: clear
Temperature: 60.1 F (15.6 C)
Dew Point: 42.1 F (5.6 C)
Relative Humidity: 51%
Pressure (altimeter): 30.2 in. Hg (1022 hPa)
ob: KELN 260653Z AUTO 00000KT 10SM CLR 16/06 A3020 RMK AO2 SLP216 T01560056
cycle: 7

Station Type Date Time Source
KELN TAF UTC NOAA

Error!

Example: see airport list